Time;durP1;ratioP1;P1;durP2;ratioP2;P2;SDS_P1;SDS_P2;PMS_P1;PMS_P2;Temp;Humidity;BMP_temperature;BMP_pressure;BME280_temperature;BME280_humidity;BME280_pressure;Samples;Min_cycle;Max_cycle;Signal;HPM_P1;HPM_P2
2023/06/22 00:02:15;;;;;;;15.18;13.68;;;17.00;82.10;;;;;;4976081;28;20183;-85
2023/06/22 00:04:41;;;;;;;15.38;13.55;;;16.90;82.30;;;;;;4976146;28;20526;-86
2023/06/22 00:07:06;;;;;;;15.88;14.32;;;17.00;82.40;;;;;;4975970;28;20245;-86
2023/06/22 00:09:32;;;;;;;15.13;13.50;;;16.90;82.50;;;;;;4974919;28;20676;-86
2023/06/22 00:11:58;;;;;;;18.27;13.90;;;16.90;82.60;;;;;;4976052;28;20175;-86
2023/06/22 00:14:23;;;;;;;17.10;13.48;;;16.80;82.60;;;;;;4974978;28;20703;-86
2023/06/22 00:16:49;;;;;;;17.27;15.30;;;16.80;82.60;;;;;;4974800;28;20704;-86
2023/06/22 00:19:19;;;;;;;15.90;14.35;;;16.80;82.70;;;;;;4975990;28;20179;-86
2023/06/22 00:21:46;;;;;;;16.20;14.55;;;16.80;82.90;;;;;;4974692;28;20210;-86
2023/06/22 00:24:12;;;;;;;20.15;14.80;;;16.80;83.00;;;;;;4974663;28;20203;-86
2023/06/22 00:26:38;;;;;;;18.35;14.30;;;16.70;83.50;;;;;;4974503;28;20712;-86
2023/06/22 00:29:03;;;;;;;22.30;13.35;;;16.80;83.90;;;;;;4975887;28;20249;-86
2023/06/22 00:31:29;;;;;;;17.20;12.90;;;16.80;84.30;;;;;;4974384;28;20202;-86
2023/06/22 00:33:54;;;;;;;20.90;13.73;;;16.80;84.30;;;;;;4974686;28;20629;-86
2023/06/22 00:36:20;;;;;;;18.42;12.95;;;16.70;84.50;;;;;;4975464;28;20191;-86
2023/06/22 00:38:47;;;;;;;13.35;12.05;;;16.60;84.90;;;;;;4975813;28;20216;-86
2023/06/22 00:41:12;;;;;;;13.15;11.82;;;16.50;85.20;;;;;;4975863;28;20610;-86
2023/06/22 00:43:38;;;;;;;14.13;10.40;;;16.40;85.70;;;;;;4975685;28;20277;-86
2023/06/22 00:46:03;;;;;;;12.77;11.52;;;16.40;85.90;;;;;;4974182;28;20723;-86
2023/06/22 00:48:29;;;;;;;12.80;9.80;;;16.40;86.20;;;;;;4974151;28;20174;-86
2023/06/22 00:53:20;;;;;;;15.45;10.98;;;16.30;86.20;;;;;;5522309;23;20262;-85
2023/06/22 00:55:51;;;;;;;14.70;12.68;;;16.20;86.40;;;;;;4974516;28;20179;-85
2023/06/22 00:58:21;;;;;;;18.92;13.45;;;16.20;86.80;;;;;;4974083;28;20176;-85
2023/06/22 01:00:47;;;;;;;17.67;13.27;;;16.20;87.00;;;;;;4975564;28;20155;-85
2023/06/22 01:03:12;;;;;;;15.73;12.52;;;16.20;87.10;;;;;;4974128;28;20252;-85
2023/06/22 01:05:39;;;;;;;21.35;13.57;;;16.20;87.30;;;;;;4975338;28;20692;-85
2023/06/22 01:08:32;;;;;;;16.27;13.30;;;16.20;87.50;;;;;;4975678;28;20174;-85
2023/06/22 01:11:05;;;;;;;17.90;12.93;;;16.20;87.60;;;;;;4975653;28;20209;-85
2023/06/22 01:13:45;;;;;;;13.63;11.20;;;16.20;87.60;;;;;;4974460;28;20201;-85
2023/06/22 01:16:23;;;;;;;17.20;11.80;;;16.20;87.40;;;;;;4974752;28;20170;-85
2023/06/22 01:18:51;;;;;;;16.75;11.77;;;16.20;87.50;;;;;;4974020;28;20175;-85
2023/06/22 01:21:20;;;;;;;13.57;12.20;;;16.10;87.50;;;;;;4975247;28;20179;-85
2023/06/22 01:24:00;;;;;;;15.63;11.10;;;16.10;87.70;;;;;;4973845;28;20206;-85
2023/06/22 01:26:32;;;;;;;12.30;10.80;;;16.10;87.90;;;;;;4975358;28;20284;-85
2023/06/22 01:28:59;;;;;;;14.32;10.48;;;16.10;87.90;;;;;;4973666;28;20170;-85
2023/06/22 01:31:26;;;;;;;16.63;11.38;;;16.10;88.10;;;;;;4973765;28;20175;-85
2023/06/22 01:34:04;;;;;;;15.05;11.05;;;16.20;88.20;;;;;;4974903;28;20277;-85
2023/06/22 01:36:31;;;;;;;18.10;11.13;;;16.20;88.10;;;;;;4975269;28;20159;-85
2023/06/22 01:38:58;;;;;;;17.92;11.30;;;16.20;88.20;;;;;;4973453;28;20273;-85
2023/06/22 01:41:27;;;;;;;14.05;11.07;;;16.20;88.10;;;;;;4973526;28;20285;-85
2023/06/22 01:43:54;;;;;;;15.68;10.90;;;16.30;88.10;;;;;;4973394;28;20215;-85
2023/06/22 01:46:21;;;;;;;15.73;10.43;;;16.30;88.10;;;;;;4974659;28;20612;-85
2023/06/22 01:48:47;;;;;;;16.38;10.23;;;16.30;88.00;;;;;;4974673;28;20171;-85
2023/06/22 01:51:13;;;;;;;10.45;9.45;;;16.30;88.00;;;;;;4973453;28;20270;-85
2023/06/22 01:53:39;;;;;;;13.60;10.45;;;16.30;87.90;;;;;;4974487;28;20214;-85
2023/06/22 01:56:05;;;;;;;12.98;10.50;;;16.40;87.90;;;;;;4974515;28;20261;-85
2023/06/22 01:58:31;;;;;;;17.17;11.82;;;16.40;87.80;;;;;;4973340;28;20633;-85
2023/06/22 02:01:20;;;;;;;13.05;11.73;;;16.40;87.60;;;;;;4973346;28;20183;-85
2023/06/22 02:03:58;;;;;;;19.75;12.05;;;16.40;87.50;;;;;;4973159;28;20261;-85
2023/06/22 02:06:35;;;;;;;15.95;12.60;;;16.40;87.40;;;;;;4974398;28;20232;-85
2023/06/22 02:09:05;;;;;;;14.32;11.65;;;16.40;87.30;;;;;;4974582;28;20163;-85
2023/06/22 02:11:32;;;;;;;18.80;11.75;;;16.40;87.20;;;;;;4974458;28;20190;-85
2023/06/22 02:13:58;;;;;;;14.93;11.80;;;16.30;87.30;;;;;;4973088;28;20198;-85
2023/06/22 02:16:24;;;;;;;16.73;11.65;;;16.30;87.30;;;;;;4973121;28;20552;-85
2023/06/22 02:18:51;;;;;;;15.57;11.40;;;16.40;87.30;;;;;;4973031;28;20186;-85
2023/06/22 02:21:20;;;;;;;15.10;11.75;;;16.40;87.20;;;;;;4974251;28;20179;-85
2023/06/22 02:23:46;;;;;;;15.02;12.07;;;16.40;87.10;;;;;;4973063;28;20238;-85
2023/06/22 02:26:12;;;;;;;21.23;13.10;;;16.40;87.00;;;;;;4972893;28;20248;-85
2023/06/22 02:28:38;;;;;;;13.35;11.88;;;16.40;86.90;;;;;;4972971;28;20175;-85
2023/06/22 02:31:03;;;;;;;22.75;13.80;;;16.30;87.00;;;;;;4972875;28;20175;-85
2023/06/22 02:33:29;;;;;;;24.35;13.65;;;16.30;87.00;;;;;;4973297;28;20238;-86
2023/06/22 02:35:54;;;;;;;23.13;14.85;;;16.20;86.90;;;;;;4972817;28;20273;-85
2023/06/22 02:38:20;;;;;;;29.52;14.77;;;16.20;86.90;;;;;;4972816;28;20190;-85
2023/06/22 02:40:46;;;;;;;22.17;14.27;;;16.20;87.10;;;;;;4972851;28;20211;-85
2023/06/22 02:43:13;;;;;;;29.48;13.52;;;16.10;87.10;;;;;;4972758;28;20292;-85
2023/06/22 02:45:38;;;;;;;22.35;14.07;;;16.00;87.30;;;;;;4972869;28;20278;-85
2023/06/22 02:48:04;;;;;;;22.38;13.85;;;16.00;87.40;;;;;;4972872;28;20266;-85
2023/06/22 02:50:30;;;;;;;19.85;12.98;;;16.00;87.50;;;;;;4973992;28;20213;-85
2023/06/22 02:52:56;;;;;;;20.27;14.02;;;16.00;87.60;;;;;;4973820;28;20214;-85
2023/06/22 02:55:21;;;;;;;21.10;14.30;;;16.10;87.50;;;;;;4972887;28;20179;-85
2023/06/22 02:57:47;;;;;;;26.48;15.77;;;16.10;87.50;;;;;;4975752;28;20178;-85
2023/06/22 03:00:17;;;;;;;23.42;16.20;;;16.00;87.40;;;;;;4976224;28;20182;-85
2023/06/22 03:02:44;;;;;;;22.70;15.20;;;16.10;87.40;;;;;;4976050;28;20202;-85
2023/06/22 03:05:13;;;;;;;26.17;15.27;;;16.10;87.50;;;;;;4976932;28;20189;-85
2023/06/22 03:07:42;;;;;;;21.95;15.07;;;16.10;87.30;;;;;;4975922;28;20207;-85
2023/06/22 03:10:09;;;;;;;21.10;13.30;;;16.10;87.40;;;;;;4976084;28;20287;-85
2023/06/22 03:12:35;;;;;;;22.45;14.95;;;16.10;87.40;;;;;;4975916;28;20199;-85
2023/06/22 03:15:00;;;;;;;21.40;13.65;;;16.20;87.20;;;;;;4976036;28;20181;-85
2023/06/22 03:17:26;;;;;;;16.92;14.73;;;16.20;87.30;;;;;;4975940;28;20201;-85
2023/06/22 03:19:51;;;;;;;21.90;15.07;;;16.20;87.10;;;;;;4975834;28;20218;-85
2023/06/22 03:22:17;;;;;;;21.15;14.98;;;16.20;87.00;;;;;;4975804;28;20183;-85
2023/06/22 03:24:42;;;;;;;19.50;15.20;;;16.10;86.90;;;;;;4975632;28;20265;-85
2023/06/22 03:27:08;;;;;;;19.15;14.90;;;16.10;86.70;;;;;;4975682;28;20218;-85
2023/06/22 03:29:34;;;;;;;22.38;16.02;;;16.10;86.50;;;;;;4975904;28;20709;-85
2023/06/22 03:31:59;;;;;;;17.73;15.80;;;16.00;86.40;;;;;;4975581;28;20174;-86
2023/06/22 03:34:25;;;;;;;22.00;17.38;;;16.00;86.30;;;;;;4975529;28;20174;-85
2023/06/22 03:36:50;;;;;;;20.55;16.95;;;16.00;86.20;;;;;;4976684;28;20183;-85
2023/06/22 03:39:16;;;;;;;20.05;16.98;;;16.00;86.30;;;;;;4976711;28;20214;-85
2023/06/22 03:41:42;;;;;;;19.80;17.05;;;16.00;86.40;;;;;;4975674;28;20206;-85
2023/06/22 03:44:12;;;;;;;27.10;17.38;;;16.00;86.50;;;;;;4976544;28;20205;-85
2023/06/22 03:46:37;;;;;;;23.33;18.48;;;16.00;86.50;;;;;;4976144;28;20285;-85
2023/06/22 03:49:03;;;;;;;19.58;17.63;;;16.00;86.50;;;;;;4975302;28;20206;-85
2023/06/22 03:51:29;;;;;;;21.70;17.85;;;16.00;86.70;;;;;;4976526;28;20175;-85
2023/06/22 03:53:54;;;;;;;24.80;18.38;;;16.00;86.70;;;;;;4975167;28;20210;-85
2023/06/22 03:56:20;;;;;;;27.92;18.50;;;16.00;86.60;;;;;;4976338;28;20548;-85
2023/06/22 03:58:46;;;;;;;25.98;18.15;;;16.00;86.60;;;;;;4975275;28;20557;-85
2023/06/22 04:01:12;;;;;;;25.05;18.30;;;16.10;86.80;;;;;;4976450;28;20186;-85
2023/06/22 04:03:38;;;;;;;29.42;18.63;;;16.10;86.90;;;;;;4975000;28;20198;-85
2023/06/22 04:06:03;;;;;;;27.45;18.45;;;16.20;86.90;;;;;;4975598;28;20206;-85
2023/06/22 04:08:29;;;;;;;21.13;17.15;;;16.20;87.10;;;;;;4974495;28;20532;-85
2023/06/22 04:10:55;;;;;;;22.30;17.90;;;16.30;87.20;;;;;;4976092;28;20171;-85
2023/06/22 04:13:21;;;;;;;26.08;19.05;;;16.30;87.30;;;;;;4974978;28;20194;-85
2023/06/22 04:15:46;;;;;;;26.20;19.63;;;16.30;87.40;;;;;;4975162;28;20183;-85
2023/06/22 04:18:13;;;;;;;33.15;21.23;;;16.50;87.60;;;;;;4974900;28;20178;-85
2023/06/22 04:20:38;;;;;;;33.30;21.23;;;16.70;87.70;;;;;;4974827;28;20273;-85
2023/06/22 04:23:04;;;;;;;27.38;20.48;;;16.60;88.00;;;;;;4975216;28;20234;-85
2023/06/22 04:25:29;;;;;;;30.60;20.63;;;16.60;88.00;;;;;;4974635;28;20618;-85
2023/06/22 04:27:55;;;;;;;28.17;19.77;;;16.50;88.20;;;;;;4975897;28;20179;-85
2023/06/22 04:30:21;;;;;;;32.88;21.02;;;16.60;88.20;;;;;;4974495;28;20174;-85
2023/06/22 04:32:55;;;;;;;35.15;21.75;;;16.60;88.40;;;;;;4975637;28;20234;-85
2023/06/22 04:35:22;;;;;;;26.73;20.58;;;16.60;88.50;;;;;;4974778;28;20581;-85
2023/06/22 04:37:49;;;;;;;36.28;22.15;;;16.60;88.60;;;;;;4974413;28;20182;-85
2023/06/22 04:40:15;;;;;;;35.92;22.15;;;16.60;88.60;;;;;;4974330;28;20313;-85
2023/06/22 04:42:40;;;;;;;26.45;20.75;;;16.60;88.70;;;;;;4974249;28;20259;-85
2023/06/22 04:45:06;;;;;;;36.30;23.45;;;16.50;88.80;;;;;;4975459;28;20178;-85
2023/06/22 04:47:32;;;;;;;34.50;22.02;;;16.60;88.90;;;;;;4975521;28;20194;-85
2023/06/22 04:49:57;;;;;;;39.08;23.83;;;16.70;88.90;;;;;;4975591;28;20170;-85
2023/06/22 04:52:24;;;;;;;32.42;24.23;;;16.60;88.90;;;;;;4975181;28;20195;-85
2023/06/22 04:54:55;;;;;;;32.63;24.17;;;16.70;89.00;;;;;;4974258;28;20518;-85
2023/06/22 04:57:21;;;;;;;30.02;24.35;;;16.70;89.20;;;;;;4974145;28;20167;-85
2023/06/22 04:59:46;;;;;;;30.77;24.63;;;16.70;89.30;;;;;;4974014;28;20635;-85
2023/06/22 05:02:12;;;;;;;41.42;25.20;;;16.80;89.40;;;;;;4973934;28;20183;-85
2023/06/22 05:04:40;;;;;;;35.00;25.30;;;16.80;89.60;;;;;;4974192;28;20245;-85
2023/06/22 05:07:06;;;;;;;35.22;25.23;;;16.80;89.50;;;;;;4973934;28;20237;-87
2023/06/22 05:09:33;;;;;;;35.65;26.52;;;16.80;89.70;;;;;;4973795;28;20181;-87
2023/06/22 05:12:01;;;;;;;34.75;26.38;;;16.80;89.90;;;;;;4973729;28;20190;-87
2023/06/22 05:14:27;;;;;;;35.55;26.17;;;17.00;90.10;;;;;;4973849;28;20190;-86
2023/06/22 05:16:53;;;;;;;34.35;27.13;;;17.00;90.20;;;;;;4975202;28;20174;-87
2023/06/22 05:19:18;;;;;;;38.97;26.55;;;17.10;90.20;;;;;;4973635;28;20183;-87
2023/06/22 05:21:44;;;;;;;36.30;25.35;;;17.10;90.10;;;;;;4974496;28;20178;-87
2023/06/22 05:24:09;;;;;;;34.25;24.40;;;17.20;90.20;;;;;;4973591;28;20265;-87
2023/06/22 05:26:35;;;;;;;31.80;23.70;;;17.20;90.20;;;;;;4973485;28;20202;-87
2023/06/22 05:29:02;;;;;;;29.35;23.65;;;17.20;90.20;;;;;;4974822;28;20182;-87
2023/06/22 05:31:29;;;;;;;27.85;23.30;;;17.20;90.10;;;;;;4975094;28;20251;-86
2023/06/22 05:33:55;;;;;;;30.17;24.70;;;17.30;90.00;;;;;;4973832;28;20700;-87
2023/06/22 05:36:24;;;;;;;32.17;24.08;;;17.30;89.90;;;;;;4974675;28;20175;-86
2023/06/22 05:38:51;;;;;;;31.27;23.25;;;17.40;90.00;;;;;;4973532;28;20274;-87
2023/06/22 05:41:16;;;;;;;30.50;24.50;;;17.50;90.10;;;;;;4973348;28;20230;-87
2023/06/22 05:43:42;;;;;;;31.05;23.35;;;17.50;90.10;;;;;;4973247;28;20234;-86
2023/06/22 05:46:07;;;;;;;32.55;22.23;;;17.50;89.90;;;;;;4973315;28;20749;-87
2023/06/22 05:48:33;;;;;;;29.27;22.25;;;17.50;89.60;;;;;;4974382;28;20193;-87
2023/06/22 05:50:59;;;;;;;36.83;20.38;;;17.50;89.60;;;;;;4973333;28;20174;-87
2023/06/22 05:53:25;;;;;;;28.20;20.17;;;17.60;89.40;;;;;;4974491;28;20635;-87
2023/06/22 05:55:50;;;;;;;21.77;17.80;;;17.60;89.30;;;;;;4973203;28;20181;-87
2023/06/22 05:58:16;;;;;;;25.45;18.77;;;17.60;88.80;;;;;;4974651;28;20182;-87
2023/06/22 06:00:43;;;;;;;25.33;18.15;;;17.70;88.70;;;;;;4973358;28;20559;-87
2023/06/22 06:03:09;;;;;;;28.23;18.55;;;17.70;88.80;;;;;;4974372;28;20195;-87
2023/06/22 06:05:35;;;;;;;26.85;17.92;;;17.80;88.60;;;;;;4973132;28;20263;-87
2023/06/22 06:08:02;;;;;;;24.85;17.58;;;17.70;88.40;;;;;;4973208;28;20290;-87
2023/06/22 06:10:29;;;;;;;21.23;17.33;;;17.80;88.40;;;;;;4974364;28;20171;-87
2023/06/22 06:12:55;;;;;;;20.38;17.73;;;17.80;88.50;;;;;;4973165;28;20685;-87
2023/06/22 06:15:20;;;;;;;20.63;18.15;;;17.90;88.70;;;;;;4973104;28;20229;-87
2023/06/22 06:17:50;;;;;;;23.75;18.35;;;18.00;88.70;;;;;;4973025;28;20306;-87
2023/06/22 06:20:19;;;;;;;26.73;18.75;;;18.00;88.40;;;;;;4974234;28;20205;-87
2023/06/22 06:22:45;;;;;;;18.63;16.73;;;18.00;88.50;;;;;;4974242;28;20194;-87
2023/06/22 06:25:15;;;;;;;21.70;16.20;;;18.10;88.20;;;;;;4973022;28;20206;-87
2023/06/22 06:27:44;;;;;;;14.75;13.25;;;18.10;87.50;;;;;;4973269;28;20206;-86
2023/06/22 06:30:15;;;;;;;14.45;12.68;;;18.20;86.60;;;;;;4973043;28;20606;-87
2023/06/22 06:32:41;;;;;;;13.00;11.68;;;18.30;85.90;;;;;;4976690;28;20195;-87
2023/06/22 06:35:09;;;;;;;11.63;9.57;;;18.40;85.00;;;;;;4977862;28;20177;-86
2023/06/22 06:37:37;;;;;;;11.25;10.15;;;18.60;83.20;;;;;;4977088;28;20214;-86
2023/06/22 06:40:10;;;;;;;13.73;10.70;;;18.70;81.50;;;;;;4977800;28;20189;-86
2023/06/22 06:42:41;;;;;;;11.27;10.27;;;18.90;81.10;;;;;;4976488;28;20250;-86
2023/06/22 06:45:18;;;;;;;11.52;9.35;;;19.10;80.00;;;;;;4977829;28;20156;-87
2023/06/22 06:47:43;;;;;;;12.45;9.48;;;19.20;79.50;;;;;;4976499;28;20202;-87
2023/06/22 06:50:10;;;;;;;12.40;9.43;;;19.30;79.80;;;;;;4976390;28;20552;-87
2023/06/22 06:52:35;;;;;;;10.02;8.23;;;19.50;79.80;;;;;;4976235;28;20690;-87
2023/06/22 06:55:01;;;;;;;10.80;8.45;;;19.50;78.50;;;;;;4977178;28;20205;-86
2023/06/22 06:57:30;;;;;;;10.50;7.60;;;19.70;78.20;;;;;;4976243;28;20214;-87
2023/06/22 06:59:56;;;;;;;9.73;8.90;;;19.70;77.00;;;;;;4977818;28;20170;-86
2023/06/22 07:02:22;;;;;;;8.73;8.10;;;19.80;76.50;;;;;;4976022;28;20582;-87
2023/06/22 07:04:48;;;;;;;11.23;8.43;;;19.90;75.50;;;;;;4976092;28;20680;-87
2023/06/22 07:07:14;;;;;;;8.27;7.50;;;20.00;75.70;;;;;;4976171;28;20202;-87
2023/06/22 07:09:39;;;;;;;8.85;7.95;;;20.20;75.40;;;;;;4977194;28;20181;-87
2023/06/22 07:12:05;;;;;;;9.95;9.02;;;20.20;75.40;;;;;;4976113;28;20175;-87
2023/06/22 07:14:31;;;;;;;12.70;8.65;;;20.30;74.60;;;;;;4976142;28;20310;-87
2023/06/22 07:16:57;;;;;;;9.55;7.75;;;20.50;74.10;;;;;;4976177;28;20333;-87
2023/06/22 07:19:27;;;;;;;9.95;9.05;;;20.60;74.60;;;;;;4975830;28;20175;-87
2023/06/22 07:21:56;;;;;;;10.60;9.80;;;20.80;74.10;;;;;;4975926;28;20183;-87
2023/06/22 07:24:22;;;;;;;10.68;9.68;;;20.90;72.10;;;;;;4975623;28;20293;-87
2023/06/22 07:26:49;;;;;;;10.13;9.32;;;20.90;72.10;;;;;;4975822;28;20681;-87
2023/06/22 07:29:19;;;;;;;11.15;10.23;;;21.00;70.90;;;;;;4975711;28;20174;-86
2023/06/22 07:31:45;;;;;;;10.65;9.65;;;21.10;69.90;;;;;;4976560;28;20242;-87
2023/06/22 07:34:11;;;;;;;12.27;11.20;;;21.20;70.40;;;;;;4975834;28;20233;-87
2023/06/22 07:36:36;;;;;;;10.57;9.75;;;21.20;69.50;;;;;;4975751;28;20723;-87
2023/06/22 07:39:03;;;;;;;13.68;12.50;;;21.30;70.20;;;;;;4975659;28;20191;-86
2023/06/22 07:41:29;;;;;;;13.40;12.40;;;21.40;68.30;;;;;;4975849;28;20214;-87
2023/06/22 07:43:55;;;;;;;13.35;12.15;;;21.50;68.20;;;;;;4974520;28;20199;-87
2023/06/22 07:46:20;;;;;;;14.43;13.10;;;21.70;69.40;;;;;;4975206;28;20202;-87
2023/06/22 07:48:46;;;;;;;14.13;12.70;;;21.70;67.10;;;;;;4976424;28;20198;-87
2023/06/22 07:51:14;;;;;;;14.30;12.95;;;21.80;68.50;;;;;;4975389;28;20258;-87
2023/06/22 07:53:44;;;;;;;12.10;11.20;;;21.90;68.20;;;;;;4974984;28;20720;-87
2023/06/22 07:56:13;;;;;;;15.43;14.15;;;21.80;63.90;;;;;;4975229;28;20190;-87
2023/06/22 07:58:39;;;;;;;13.45;12.60;;;22.00;65.50;;;;;;4975326;28;20206;-87
2023/06/22 08:01:05;;;;;;;12.13;11.27;;;22.00;64.90;;;;;;4976662;28;20218;-86
2023/06/22 08:03:31;;;;;;;13.82;12.50;;;22.00;64.80;;;;;;4976642;28;20191;-87
2023/06/22 08:05:57;;;;;;;13.25;12.13;;;22.00;65.50;;;;;;4974906;28;20207;-87
2023/06/22 08:08:23;;;;;;;13.88;12.88;;;22.20;66.90;;;;;;4975088;28;20171;-87
2023/06/22 08:10:49;;;;;;;14.18;13.18;;;22.20;65.30;;;;;;4976205;28;20189;-87
2023/06/22 08:13:15;;;;;;;14.02;12.93;;;22.30;64.90;;;;;;4974778;28;20194;-87
2023/06/22 08:15:40;;;;;;;13.30;12.20;;;22.50;65.70;;;;;;4974871;28;20265;-87
2023/06/22 08:18:06;;;;;;;13.98;12.88;;;22.60;66.00;;;;;;4974789;28;20186;-87
2023/06/22 08:20:32;;;;;;;14.50;13.40;;;22.70;64.30;;;;;;4974666;28;20186;-87
2023/06/22 08:23:00;;;;;;;13.93;12.90;;;22.80;65.90;;;;;;4974657;28;20195;-87
2023/06/22 08:25:25;;;;;;;15.50;14.40;;;22.90;65.30;;;;;;4974717;28;20181;-87
2023/06/22 08:27:51;;;;;;;14.05;13.15;;;23.10;65.90;;;;;;4976070;28;20206;-87
2023/06/22 08:30:18;;;;;;;13.32;12.18;;;23.10;63.20;;;;;;4974539;28;20181;-87
2023/06/22 08:32:44;;;;;;;12.88;11.82;;;23.20;63.80;;;;;;4974779;28;20681;-88
2023/06/22 08:35:09;;;;;;;13.82;12.73;;;23.20;63.20;;;;;;4976121;28;20174;-88
2023/06/22 08:37:35;;;;;;;13.25;12.35;;;23.30;64.60;;;;;;4975740;28;20654;-87
2023/06/22 08:40:08;;;;;;;13.30;12.50;;;23.30;63.60;;;;;;4975589;28;20179;-87
2023/06/22 08:42:33;;;;;;;13.10;12.18;;;23.50;64.80;;;;;;4974619;28;20639;-88
2023/06/22 08:44:59;;;;;;;13.88;12.73;;;23.70;63.30;;;;;;4975547;28;20210;-87
2023/06/22 08:47:25;;;;;;;12.90;11.95;;;23.70;60.60;;;;;;4974166;28;20241;-87
2023/06/22 08:49:50;;;;;;;13.52;12.30;;;23.70;62.80;;;;;;4974324;28;20178;-87
2023/06/22 08:52:18;;;;;;;12.98;12.13;;;24.00;62.70;;;;;;4975241;28;20720;-87
2023/06/22 08:54:44;;;;;;;14.23;13.13;;;24.20;62.90;;;;;;4975356;28;20151;-88
2023/06/22 08:57:10;;;;;;;16.08;14.98;;;24.40;59.60;;;;;;4974054;28;20282;-87
2023/06/22 08:59:35;;;;;;;14.35;13.32;;;24.40;58.60;;;;;;4975275;28;20673;-87
2023/06/22 09:02:01;;;;;;;15.32;14.23;;;24.40;59.80;;;;;;4974163;28;20206;-87
2023/06/22 09:04:26;;;;;;;16.88;15.35;;;24.40;58.50;;;;;;4974031;28;20229;-87
2023/06/22 09:06:52;;;;;;;17.08;15.98;;;24.50;60.30;;;;;;4975022;28;20230;-87
2023/06/22 09:09:18;;;;;;;16.65;15.55;;;24.50;59.00;;;;;;4975356;28;20254;-87
2023/06/22 09:11:43;;;;;;;15.98;14.88;;;24.50;59.80;;;;;;4974605;28;20225;-87
2023/06/22 09:14:10;;;;;;;16.55;14.93;;;24.60;57.80;;;;;;4973910;28;20697;-87
2023/06/22 09:16:35;;;;;;;15.63;14.35;;;24.60;58.70;;;;;;4973800;28;20658;-87
2023/06/22 09:19:01;;;;;;;14.20;13.20;;;24.70;58.70;;;;;;4973761;28;20182;-87
2023/06/22 09:21:27;;;;;;;15.52;14.32;;;24.90;57.70;;;;;;4974871;28;20210;-87
2023/06/22 09:23:52;;;;;;;16.20;14.77;;;25.00;57.30;;;;;;4973635;28;20210;-87
2023/06/22 09:26:18;;;;;;;16.08;14.80;;;25.20;57.20;;;;;;4973522;28;20207;-88
2023/06/22 09:28:44;;;;;;;15.70;14.60;;;25.40;57.00;;;;;;4973677;28;20174;-87
2023/06/22 09:31:10;;;;;;;14.82;13.75;;;25.30;56.90;;;;;;4974745;28;20646;-87
2023/06/22 09:33:37;;;;;;;14.60;13.50;;;25.30;54.80;;;;;;4973884;28;20241;-87
2023/06/22 09:36:05;;;;;;;14.38;13.43;;;25.20;57.20;;;;;;4973662;28;20248;-87
2023/06/22 09:38:30;;;;;;;15.07;14.00;;;25.10;56.90;;;;;;4973465;28;20214;-87
2023/06/22 09:40:56;;;;;;;14.45;13.45;;;25.00;57.20;;;;;;4973762;28;20190;-87
2023/06/22 09:43:21;;;;;;;15.38;14.27;;;25.10;57.10;;;;;;4974366;28;20210;-88
2023/06/22 09:45:47;;;;;;;14.40;13.40;;;25.20;57.20;;;;;;4973659;28;20182;-88
2023/06/22 09:48:12;;;;;;;14.57;13.50;;;25.50;58.30;;;;;;4973765;28;20721;-88
2023/06/22 09:50:38;;;;;;;15.65;14.43;;;25.60;56.00;;;;;;4973416;28;20658;-88
2023/06/22 09:53:03;;;;;;;15.60;14.48;;;25.60;55.70;;;;;;4973037;28;20297;-88
2023/06/22 09:55:29;;;;;;;15.02;13.93;;;25.70;55.00;;;;;;4974749;28;20205;-87
2023/06/22 09:57:55;;;;;;;15.20;14.13;;;25.90;55.90;;;;;;4973327;28;20190;-88
2023/06/22 10:00:22;;;;;;;15.23;14.23;;;26.10;56.50;;;;;;4973340;28;20206;-87
2023/06/22 10:02:47;;;;;;;15.95;14.85;;;26.10;56.50;;;;;;4973404;28;20682;-87
2023/06/22 10:05:13;;;;;;;16.20;14.90;;;25.80;55.30;;;;;;4973161;28;20186;-87
2023/06/22 10:07:42;;;;;;;15.98;14.90;;;25.90;56.00;;;;;;4976178;28;20199;-87
2023/06/22 10:10:08;;;;;;;15.55;14.45;;;26.00;55.00;;;;;;4977084;28;20206;-87
2023/06/22 10:12:33;;;;;;;15.20;14.05;;;25.90;54.40;;;;;;4976971;28;20202;-87
2023/06/22 10:14:59;;;;;;;16.23;15.02;;;26.00;57.60;;;;;;4977097;28;20179;-87
2023/06/22 10:17:25;;;;;;;15.93;14.80;;;26.10;57.00;;;;;;4978408;28;20265;-87
2023/06/22 10:19:50;;;;;;;17.10;15.68;;;26.00;54.70;;;;;;4978530;28;20174;-87
2023/06/22 10:22:16;;;;;;;16.25;14.68;;;25.90;54.70;;;;;;4977940;28;20179;-86
2023/06/22 10:24:44;;;;;;;15.50;14.48;;;25.90;55.60;;;;;;4976827;28;20181;-87
2023/06/22 10:27:11;;;;;;;15.55;14.05;;;25.90;56.30;;;;;;4976798;28;20206;-87
2023/06/22 10:29:37;;;;;;;16.02;14.93;;;25.80;58.10;;;;;;4977939;28;20178;-87
2023/06/22 10:32:02;;;;;;;15.93;14.82;;;25.80;59.20;;;;;;4976533;28;20175;-87
2023/06/22 10:34:28;;;;;;;16.25;15.07;;;25.70;56.50;;;;;;4976717;28;20183;-87
2023/06/22 10:36:54;;;;;;;18.30;17.00;;;25.80;55.20;;;;;;4978113;28;20662;-87
2023/06/22 10:39:19;;;;;;;19.63;18.02;;;25.90;56.20;;;;;;4976625;28;20181;-86
2023/06/22 10:41:45;;;;;;;19.50;17.92;;;26.20;52.80;;;;;;4976460;28;20189;-86
2023/06/22 10:44:10;;;;;;;17.65;16.33;;;26.40;55.80;;;;;;4976565;28;20227;-86
2023/06/22 10:46:36;;;;;;;17.70;16.30;;;26.50;54.70;;;;;;4977251;28;20211;-86
2023/06/22 10:49:01;;;;;;;16.05;14.90;;;26.40;53.90;;;;;;4978144;28;20590;-86
2023/06/22 10:51:28;;;;;;;18.38;16.98;;;26.40;55.70;;;;;;4977555;28;20183;-86
2023/06/22 10:53:53;;;;;;;16.75;15.57;;;26.30;54.80;;;;;;4976142;28;20591;-86
2023/06/22 10:56:19;;;;;;;17.60;16.20;;;26.30;55.50;;;;;;4977043;28;20179;-86
2023/06/22 10:58:45;;;;;;;19.05;17.42;;;26.40;55.30;;;;;;4976192;28;20557;-86
2023/06/22 11:01:11;;;;;;;18.85;17.55;;;26.60;58.30;;;;;;4976197;28;20186;-86
2023/06/22 11:03:37;;;;;;;19.83;18.42;;;26.80;54.20;;;;;;4976503;28;20199;-86
2023/06/22 11:06:02;;;;;;;18.92;17.40;;;27.00;53.30;;;;;;4976171;28;20690;-86
2023/06/22 11:08:28;;;;;;;19.55;18.13;;;27.00;54.60;;;;;;4975954;28;20182;-86
2023/06/22 11:10:53;;;;;;;19.92;18.30;;;27.00;53.20;;;;;;4976030;28;20183;-86
2023/06/22 11:13:19;;;;;;;19.05;17.75;;;27.00;52.90;;;;;;4975835;28;20199;-86
2023/06/22 11:15:44;;;;;;;19.20;17.90;;;27.10;52.00;;;;;;4977186;28;20222;-86
2023/06/22 11:18:10;;;;;;;19.42;17.90;;;27.20;53.50;;;;;;4975720;28;20595;-86
2023/06/22 11:20:38;;;;;;;20.13;18.50;;;27.30;51.70;;;;;;4975816;28;20183;-86
2023/06/22 11:23:05;;;;;;;19.20;17.70;;;27.30;51.50;;;;;;4976965;28;20186;-86
2023/06/22 11:25:31;;;;;;;19.70;17.88;;;27.20;51.30;;;;;;4976137;28;20179;-86
2023/06/22 11:27:56;;;;;;;19.17;17.75;;;27.30;50.80;;;;;;4975882;28;20217;-86
2023/06/22 11:30:23;;;;;;;19.08;17.48;;;27.40;53.60;;;;;;4976854;28;20174;-86
2023/06/22 11:32:48;;;;;;;18.20;16.95;;;27.50;54.80;;;;;;4975572;28;20190;-86
2023/06/22 11:35:14;;;;;;;18.85;17.60;;;27.50;51.00;;;;;;4975546;28;20182;-86
2023/06/22 11:37:39;;;;;;;18.90;17.40;;;27.40;54.40;;;;;;4976954;28;20716;-86
2023/06/22 11:40:08;;;;;;;19.40;17.70;;;27.40;52.70;;;;;;4975571;28;20179;-86
2023/06/22 11:42:34;;;;;;;19.35;17.75;;;27.50;53.60;;;;;;4976739;28;20186;-86
2023/06/22 11:45:00;;;;;;;18.98;17.58;;;27.30;53.40;;;;;;4975712;28;20183;-86
2023/06/22 11:47:25;;;;;;;19.48;18.08;;;27.10;53.40;;;;;;4976479;28;20202;-86
2023/06/22 11:49:51;;;;;;;19.52;18.13;;;27.10;53.00;;;;;;4975263;28;20233;-87
2023/06/22 11:52:17;;;;;;;19.48;17.88;;;27.40;54.40;;;;;;4974855;28;20186;-86
2023/06/22 11:54:43;;;;;;;19.60;18.10;;;27.50;50.60;;;;;;4975354;28;20262;-87
2023/06/22 11:57:09;;;;;;;19.50;18.10;;;27.60;52.50;;;;;;4975151;28;20210;-87
2023/06/22 11:59:34;;;;;;;19.40;17.90;;;27.80;54.00;;;;;;4975399;28;20178;-86
2023/06/22 12:02:00;;;;;;;20.25;18.40;;;27.70;52.90;;;;;;4976182;28;20175;-86
2023/06/22 12:04:25;;;;;;;20.83;18.90;;;27.60;52.10;;;;;;4975053;28;20183;-86
2023/06/22 12:06:51;;;;;;;20.23;18.30;;;27.60;51.50;;;;;;4974882;28;20206;-86
2023/06/22 12:09:16;;;;;;;19.75;18.20;;;27.60;51.90;;;;;;4974889;28;20170;-86
2023/06/22 12:11:49;;;;;;;19.38;17.98;;;27.90;52.70;;;;;;4974915;28;20274;-86
2023/06/22 12:14:15;;;;;;;19.40;18.00;;;28.00;52.00;;;;;;4975254;28;20230;-86
2023/06/22 12:16:41;;;;;;;19.92;18.52;;;27.90;51.10;;;;;;4975985;28;20209;-86
2023/06/22 12:19:06;;;;;;;20.77;18.73;;;27.90;51.50;;;;;;4975901;28;20210;-86
2023/06/22 12:21:32;;;;;;;19.65;18.25;;;28.00;50.80;;;;;;4974664;28;20181;-86
2023/06/22 12:23:57;;;;;;;20.25;18.70;;;28.10;51.90;;;;;;4974830;28;20237;-86
2023/06/22 12:26:23;;;;;;;20.35;18.85;;;28.20;52.50;;;;;;4974525;28;20225;-86
2023/06/22 12:28:48;;;;;;;20.80;19.20;;;28.10;52.20;;;;;;4975363;28;20213;-86